createdAt,value
2022-10-28T00:07:36.204Z,24.60
2022-10-28T00:17:37.867Z,22.65
2022-10-28T00:27:39.601Z,20.88
2022-10-28T00:37:47.337Z,21.23
2022-10-28T00:47:56.454Z,21.77
2022-10-28T00:58:01.359Z,22.10
2022-10-28T01:08:05.061Z,20.23
2022-10-28T01:18:42.158Z,22.13
2022-10-28T01:29:25.366Z,21.25
2022-10-28T01:39:51.748Z,25.00
2022-10-28T01:50:02.543Z,25.25
2022-10-28T02:00:05.143Z,25.90
2022-10-28T02:10:21.977Z,26.25
2022-10-28T02:20:35.048Z,29.00
2022-10-28T02:31:06.389Z,27.65
2022-10-28T02:41:28.092Z,25.80
2022-10-28T02:51:34.579Z,27.25
2022-10-28T03:01:36.536Z,29.00
2022-10-28T03:11:38.219Z,29.13
2022-10-28T03:21:39.907Z,30.80
2022-10-28T03:31:41.641Z,31.75
2022-10-28T03:41:43.700Z,31.38
2022-10-28T03:51:46.616Z,29.40
2022-10-28T04:01:48.200Z,30.13
2022-10-28T04:11:49.905Z,26.48
2022-10-28T04:21:53.267Z,27.42
2022-10-28T04:31:54.841Z,26.65
2022-10-28T04:41:56.461Z,25.75
2022-10-28T04:51:58.030Z,23.67
2022-10-28T05:01:59.921Z,21.48
2022-10-28T05:12:02.045Z,22.58
2022-10-28T05:22:03.755Z,20.03
2022-10-28T05:32:06.443Z,20.73
2022-10-28T05:42:11.833Z,23.30
2022-10-28T05:52:13.569Z,22.20
2022-10-28T06:02:15.443Z,22.70
2022-10-28T06:12:17.218Z,19.83
2022-10-28T06:22:19.579Z,22.27
2022-10-28T06:32:21.254Z,23.70
2022-10-28T06:42:23.150Z,20.20
2022-10-28T06:52:26.533Z,20.17
2022-10-28T07:02:28.180Z,22.02
2022-10-28T07:12:29.831Z,20.55
2022-10-28T07:22:31.617Z,21.50
2022-10-28T07:32:34.197Z,21.95
2022-10-28T07:42:35.873Z,24.43
2022-10-28T07:52:39.207Z,22.00
2022-10-28T08:02:42.435Z,21.40
2022-10-28T08:12:44.026Z,21.40
2022-10-28T08:22:45.737Z,17.98
2022-10-28T08:32:47.468Z,18.92
2022-10-28T08:43:00.853Z,18.15
2022-10-28T08:53:21.424Z,17.63
2022-10-28T09:03:39.340Z,18.65
2022-10-28T09:14:00.330Z,17.42
2022-10-28T09:24:17.032Z,18.27
2022-10-28T09:34:56.562Z,17.23
2022-10-28T09:45:04.316Z,19.30
2022-10-28T09:55:22.016Z,17.58
2022-10-28T10:05:26.027Z,18.33
2022-10-28T10:15:31.681Z,21.63
2022-10-28T10:25:33.320Z,19.52
2022-10-28T10:35:38.020Z,17.63
2022-10-28T10:45:40.121Z,17.63
2022-10-28T10:55:51.242Z,19.37
2022-10-28T11:06:22.040Z,19.25
2022-10-28T11:16:27.777Z,19.75
2022-10-28T11:26:37.706Z,18.42
2022-10-28T11:37:36.275Z,19.65
2022-10-28T11:47:52.916Z,19.15
2022-10-28T12:08:54.457Z,20.15
2022-10-28T12:19:00.491Z,20.10
2022-10-28T12:29:08.897Z,19.90
2022-10-28T12:39:26.889Z,19.33
2022-10-28T12:49:53.597Z,21.60
2022-10-28T13:00:06.571Z,22.90
2022-10-28T13:20:39.332Z,21.95
2022-10-28T13:30:53.488Z,23.98
2022-10-28T13:40:58.109Z,24.88
2022-10-28T13:51:29.427Z,23.90
2022-10-28T14:02:07.385Z,25.23
2022-10-28T14:12:18.224Z,25.52
2022-10-28T14:22:32.929Z,24.98
2022-10-28T14:32:57.106Z,26.05
2022-10-28T14:43:14.268Z,23.90
2022-10-28T14:53:26.792Z,24.75
2022-10-28T15:03:29.854Z,24.30
2022-10-28T15:13:31.536Z,27.02
2022-10-28T15:33:41.468Z,27.40
2022-10-28T15:43:57.480Z,28.35
2022-10-28T15:54:18.428Z,29.15
2022-10-28T16:04:23.032Z,30.25
2022-10-28T16:14:31.276Z,30.55
2022-10-28T16:24:33.093Z,28.70
2022-10-28T16:34:36.749Z,32.83
2022-10-28T16:44:38.626Z,31.55
2022-10-28T16:54:40.250Z,32.20
2022-10-28T17:04:42.953Z,32.22
2022-10-28T17:14:44.698Z,31.17
2022-10-28T17:24:46.388Z,30.70
2022-10-28T17:34:48.114Z,30.13
2022-10-28T17:44:50.180Z,27.35
2022-10-28T17:54:52.148Z,31.23
2022-10-28T18:04:53.976Z,34.75
2022-10-28T18:14:58.252Z,34.03
2022-10-28T18:25:01.702Z,33.33
2022-10-28T18:35:06.700Z,36.42
2022-10-28T18:45:10.021Z,33.97
2022-10-28T19:05:15.672Z,35.22
2022-10-28T19:15:20.456Z,36.65
2022-10-28T19:25:23.030Z,36.92
2022-10-28T19:35:35.207Z,38.55
2022-10-28T19:45:36.932Z,37.37
2022-10-28T19:55:39.584Z,37.95
2022-10-28T20:05:42.630Z,36.50
2022-10-28T20:15:44.386Z,35.65
2022-10-28T20:25:51.949Z,39.05
2022-10-28T20:35:57.217Z,38.85
2022-10-28T20:46:01.994Z,39.88
2022-10-28T20:56:04.753Z,41.20
2022-10-28T21:16:15.041Z,41.95
2022-10-28T21:26:17.063Z,42.42
2022-10-28T21:36:20.643Z,44.70
2022-10-28T21:46:25.281Z,42.40
2022-10-28T21:56:35.647Z,44.05
2022-10-28T22:06:37.661Z,41.75
2022-10-28T22:16:39.577Z,38.37
2022-10-28T22:26:41.223Z,42.35
2022-10-28T22:37:06.100Z,44.00
2022-10-28T22:47:07.702Z,43.42
2022-10-28T22:57:09.549Z,51.38
2022-10-28T23:07:11.294Z,49.50
2022-10-28T23:17:13.754Z,52.27
2022-10-28T23:27:15.420Z,54.90
2022-10-28T23:37:22.860Z,51.17
2022-10-28T23:47:24.420Z,44.75
2022-10-28T23:57:27.094Z,43.10
